• Join FlightAware (Why Join?)
  • Login
  • US Flag 
02:47PM EDT


 

Airport Tracker/Info


-or-


 

Live Flight TrackerFlight Track Log ✈ GJS3710 ✈ 13-Aug-2013 ✈ KORD - KPHL

Flight Track Log - Related Links

Times and Time Zones

All times are in EDT time to prevent confusion due to time zone crossing. See the GJS3710 flight status page for this flight to view local times or setup timezone preferences in your user account.

Time Position Orientation Groundspeed Altitude Reporting Facility
EDT Latitude Longitude Course Direction KTS MPH feet Rate Location/Type
10:59AM 42.0000 -87.8667 90° East 151 174 1,800  Level Chicago TRACON
11:00AM 42.0000 -87.8000 90° East 227 261 3,200 2,160 Climbing Chicago TRACON
11:02AM 41.9892 -87.5839 94° East 287 330 8,800 2,400 Climbing Chicago Center
11:03AM 41.9794 -87.4697 96° East 304 350 11,400 2,160 Climbing Chicago Center
11:04AM 41.9694 -87.3481 96° East 322 371 13,400 1,560 Climbing Chicago Center
11:05AM 41.9572 -87.2106 97° East 363 418 14,700 1,380 Climbing Chicago Center
11:06AM 41.9453 -87.0597 96° East 400 460 16,300 1,620 Climbing Chicago Center
11:07AM 41.9475 -86.9017 89° East 420 483 18,100 1,860 Climbing Chicago Center
11:08AM 41.9461 -86.7094 90° East 430 495 20,200 1,860 Climbing Chicago Center
11:09AM 41.9344 -86.5447 95° East 441 507 22,000 1,740 Climbing Chicago Center
11:10AM 41.9242 -86.3800 95° East 445 512 23,800 1,500 Climbing Chicago Center
11:11AM 41.9131 -86.2239 95° East 447 514 25,100 1,200 Climbing Chicago Center
11:12AM 41.8983 -86.0161 95° East 466 536 26,300 1,020 Climbing Chicago Center
11:13AM 41.8856 -85.8339 95° East 488 562 27,300 960 Climbing Chicago Center
11:14AM 41.8731 -85.6514 95° East 495 570 28,300 960 Climbing Chicago Center
11:16AM 41.8594 -85.4642 96° East 505 581 29,300 960 Climbing Chicago Center
11:17AM 41.8450 -85.2742 96° East 512 589 30,300 960 Climbing Chicago Center
11:18AM 41.8308 -85.0864 96° East 510 587 31,300 1,080 Climbing Chicago Center
11:19AM 41.8133 -84.8558 96° East 519 597 32,600 1,140 Climbing Chicago Center
11:20AM 41.7981 -84.6694 96° East 511 588 33,700 1,020 Climbing Chicago Center
11:21AM 41.7825 -84.4839 96° East 506 582 34,800 780 Climbing Chicago Center
11:22AM 41.7536 -84.3006 102° East 507 583 35,400 480 Climbing Chicago Center
11:23AM 41.7142 -84.1139 106° East 524 603 35,900 480 Climbing Chicago Center
11:24AM 41.6667 -83.8936 106° East 517 595 36,500 480 Climbing Chicago Center
11:25AM 41.6278 -83.7047 105° East 529 609 37,000 480 Climbing Chicago Center
11:26AM 41.5736 -83.4617 107° East 523 602 37,600 480 Climbing Cleveland Center
11:27AM 41.5322 -83.2711 106° East 523 602 38,100 480 Climbing Cleveland Center
11:28AM 41.4986 -83.1061 105° East 523 602 38,600 420 Climbing Cleveland Center
11:29AM 41.4567 -82.9161 106° East 523 602 39,000 180 Climbing Cleveland Center
11:30AM 41.4106 -82.7150 107° East 518 596 39,000  Level Cleveland Center
11:31AM 41.3703 -82.5283 106° East 518 596 39,000  Level Cleveland Center
11:32AM 41.3294 -82.3472 107° East 518 596 39,000  Level Cleveland Center
11:33AM 41.2881 -82.1667 107° East 518 596 39,000  Level Cleveland Center
11:34AM 41.2508 -81.9861 105° East 513 590 39,000  Level Cleveland Center
11:35AM 41.2114 -81.8086 106° East 508 585 39,000  Level Cleveland Center
11:36AM 41.1672 -81.6314 108° East 503 579 39,000  Level Cleveland Center
11:37AM 41.1228 -81.4514 108° East 503 579 39,000  Level Cleveland Center
11:38AM 41.0803 -81.2772 108° East 510 587 39,000  Level Cleveland Center
11:39AM 41.0375 -81.1006 108° East 502 578 39,000  Level Cleveland Center
11:40AM 41.0006 -80.9242 105° East 502 578 39,000  Level Cleveland Center
11:41AM 40.9675 -80.7811 107° East 502 578 39,000  Level Cleveland Center
11:42AM 40.9197 -80.5886 108° East 502 578 39,000  Level Cleveland Center
11:43AM 40.8758 -80.4100 108° East 502 578 39,000  Level Cleveland Center
11:44AM 40.8233 -80.2181 110° East 502 578 39,000  Level Cleveland Center
11:45AM 40.7664 -80.0514 114° Southeast 502 578 39,000  Level Cleveland Center
11:46AM 40.7133 -79.9011 115° Southeast 502 578 39,000  Level Cleveland Center
11:47AM 40.6519 -79.7319 116° Southeast 502 578 39,000  Level Cleveland Center
11:48AM 40.5922 -79.5686 116° Southeast 497 572 39,000  Level Cleveland Center
11:49AM 40.5550 -79.3889 105° East 497 572 39,000  Level Cleveland Center
11:50AM 40.5194 -79.1956 104° East 502 578 39,000 -240 Level Cleveland Center
11:51AM 40.4878 -79.0133 103° East 502 578 38,600 -660 Descending Cleveland Center
11:52AM 40.4625 -78.8531 102° East 508 585 37,700 -1,920 Descending Cleveland Center
11:53AM 40.4347 -78.6736 101° East 502 578 34,800 -3,000 Descending Cleveland Center
11:54AM 40.4128 -78.4942 99° East 502 578 31,800 -3,060 Descending Cleveland Center
11:56AM 40.3908 -78.1922 95° East 514 592 26,900 -2,700 Descending New York Center
11:57AM 40.3750 -78.0106 96° East 508 585 25,000 -960 Descending New York Center
11:58AM 40.3539 -77.8447 99° East 508 585 25,000 -360 Level New York Center
11:59AM 40.3336 -77.6603 98° East 508 585 24,300 -840 Descending New York Center
12:00PM 40.3108 -77.4756 99° East 508 585 23,400 -900 Descending New York Center
12:01PM 40.2897 -77.2939 99° East 508 585 22,500 -960 Descending New York Center
12:02PM 40.2625 -77.1061 101° East 497 572 21,500 -780 Descending New York Center
12:03PM 40.2400 -76.9356 100° East 484 557 21,000 -300 Descending New York Center
12:04PM 40.2178 -76.7622 99° East 479 551 21,000 -600 Level New York Center
12:05PM 40.1950 -76.5944 100° East 479 551 19,800 -2,040 Descending New York Center
12:06PM 40.1758 -76.4272 98° East 465 535 16,900 -2,820 Descending New York Center
12:07PM 40.1539 -76.2758 101° East 449 517 14,200 -2,580 Descending New York Center
12:08PM 40.1350 -76.1442 101° East 416 479 11,900 -2,100 Descending New York Center
12:09PM 40.1167 -75.9961 99° East 382 440 10,200 -1,440 Descending New York Center
12:10PM 40.0550 -75.9264 139° Southeast 319 367 9,000 -1,440 Descending New York Center
12:11PM 39.9794 -75.8936 162° South 274 315 7,400 -1,440 Descending New York Center
12:12PM 39.9014 -75.8661 165° South 279 321 6,100 -660 Descending New York Center
12:13PM 39.8511 -75.8219 146° Southeast 261 300 6,100  Level New York Center
12:14PM 39.7972 -75.7667 142° Southeast 231 266 6,100 -60 Level New York Center
12:15PM 39.7794 -75.6925 107° East 224 258 6,000 -540 Descending New York Center
12:16PM 39.7933 -75.6069 78° East 230 265 5,100 -960 Descending New York Center
12:17PM 39.8064 -75.5431 75° East 211 243 4,100 -1,080 Descending New York Center
12:18PM 39.8217 -75.4739 74° East 199 229 3,000 -1,140 Descending New York Center
12:18PM 39.8333 -75.4333 69° East 192 221 2,400 -960 Descending Philadelphia TRACON
12:19PM 39.8500 -75.3667 72° East 180 207 1,500 -900 Descending Philadelphia TRACON
12:20PM 39.8500 -75.3167 90° East 139 160 700 -840 Descending Philadelphia TRACON